sensor_id;sensor_type;location;lat;lon;timestamp;temperature;humidity
25436;DHT22;13363;52.772;-3.890;2023-09-19T00:01:35;15.10;99.90
25436;DHT22;13363;52.772;-3.890;2023-09-19T00:04:01;15.10;99.90
25436;DHT22;13363;52.772;-3.890;2023-09-19T00:06:30;15.10;99.90
25436;DHT22;13363;52.772;-3.890;2023-09-19T00:08:57;15.10;99.90
25436;DHT22;13363;52.772;-3.890;2023-09-19T00:11:25;15.20;99.90
25436;DHT22;13363;52.772;-3.890;2023-09-19T00:13:52;15.20;99.90
25436;DHT22;13363;52.772;-3.890;2023-09-19T00:16:18;15.20;99.90
25436;DHT22;13363;52.772;-3.890;2023-09-19T00:21:11;15.10;99.90
25436;DHT22;13363;52.772;-3.890;2023-09-19T00:23:37;15.20;99.90
25436;DHT22;13363;52.772;-3.890;2023-09-19T00:26:03;15.30;99.90
25436;DHT22;13363;52.772;-3.890;2023-09-19T00:28:30;15.30;99.90
25436;DHT22;13363;52.772;-3.890;2023-09-19T00:30:57;15.40;99.90
25436;DHT22;13363;52.772;-3.890;2023-09-19T00:33:27;15.40;99.90
25436;DHT22;13363;52.772;-3.890;2023-09-19T00:35:56;15.40;99.90
25436;DHT22;13363;52.772;-3.890;2023-09-19T00:38:23;15.40;99.90
25436;DHT22;13363;52.772;-3.890;2023-09-19T00:40:53;15.30;99.90
25436;DHT22;13363;52.772;-3.890;2023-09-19T00:43:19;15.30;99.90
25436;DHT22;13363;52.772;-3.890;2023-09-19T00:45:48;15.40;99.90
25436;DHT22;13363;52.772;-3.890;2023-09-19T00:48:15;15.40;99.90
25436;DHT22;13363;52.772;-3.890;2023-09-19T00:50:46;15.40;99.90
25436;DHT22;13363;52.772;-3.890;2023-09-19T00:53:14;15.30;99.90
25436;DHT22;13363;52.772;-3.890;2023-09-19T00:55:41;15.30;99.90
25436;DHT22;13363;52.772;-3.890;2023-09-19T00:58:08;15.40;99.90
25436;DHT22;13363;52.772;-3.890;2023-09-19T01:00:36;15.40;99.90
25436;DHT22;13363;52.772;-3.890;2023-09-19T01:03:02;15.40;99.90
25436;DHT22;13363;52.772;-3.890;2023-09-19T01:05:28;15.40;99.90
25436;DHT22;13363;52.772;-3.890;2023-09-19T01:07:55;15.40;99.90
25436;DHT22;13363;52.772;-3.890;2023-09-19T01:10:21;15.20;99.90
25436;DHT22;13363;52.772;-3.890;2023-09-19T01:15:38;14.60;99.90
25436;DHT22;13363;52.772;-3.890;2023-09-19T01:20:51;14.30;99.90
25436;DHT22;13363;52.772;-3.890;2023-09-19T01:26:11;14.00;99.90
25436;DHT22;13363;52.772;-3.890;2023-09-19T01:28:53;13.80;99.90
25436;DHT22;13363;52.772;-3.890;2023-09-19T01:31:23;13.80;99.90
25436;DHT22;13363;52.772;-3.890;2023-09-19T01:34:08;13.80;99.90
25436;DHT22;13363;52.772;-3.890;2023-09-19T01:36:37;13.80;99.90
25436;DHT22;13363;52.772;-3.890;2023-09-19T01:39:13;13.60;99.90
25436;DHT22;13363;52.772;-3.890;2023-09-19T01:41:46;13.50;99.90
25436;DHT22;13363;52.772;-3.890;2023-09-19T01:50:04;13.30;99.90
25436;DHT22;13363;52.772;-3.890;2023-09-19T01:52:36;13.30;99.90
25436;DHT22;13363;52.772;-3.890;2023-09-19T01:55:09;13.40;99.90
25436;DHT22;13363;52.772;-3.890;2023-09-19T02:00:14;13.30;99.90
25436;DHT22;13363;52.772;-3.890;2023-09-19T02:02:47;13.40;99.90
25436;DHT22;13363;52.772;-3.890;2023-09-19T02:05:13;13.30;99.90
25436;DHT22;13363;52.772;-3.890;2023-09-19T02:10:14;13.20;99.90
25436;DHT22;13363;52.772;-3.890;2023-09-19T02:12:40;13.20;99.90
25436;DHT22;13363;52.772;-3.890;2023-09-19T02:15:06;13.20;99.90
25436;DHT22;13363;52.772;-3.890;2023-09-19T02:17:32;13.20;99.90
25436;DHT22;13363;52.772;-3.890;2023-09-19T02:19:58;13.20;99.90
25436;DHT22;13363;52.772;-3.890;2023-09-19T02:22:29;13.10;99.90
25436;DHT22;13363;52.772;-3.890;2023-09-19T02:24:55;13.10;99.90
25436;DHT22;13363;52.772;-3.890;2023-09-19T02:27:24;13.00;99.90
25436;DHT22;13363;52.772;-3.890;2023-09-19T02:29:49;13.10;99.90
25436;DHT22;13363;52.772;-3.890;2023-09-19T02:32:17;13.10;99.90
25436;DHT22;13363;52.772;-3.890;2023-09-19T02:34:43;13.10;99.90
25436;DHT22;13363;52.772;-3.890;2023-09-19T02:37:10;13.10;99.90
25436;DHT22;13363;52.772;-3.890;2023-09-19T02:39:36;13.20;99.90
25436;DHT22;13363;52.772;-3.890;2023-09-19T02:42:02;13.20;99.90
25436;DHT22;13363;52.772;-3.890;2023-09-19T02:44:29;13.20;99.90
25436;DHT22;13363;52.772;-3.890;2023-09-19T02:46:55;13.30;99.90
25436;DHT22;13363;52.772;-3.890;2023-09-19T02:49:23;13.20;99.90
25436;DHT22;13363;52.772;-3.890;2023-09-19T02:51:49;13.20;99.90
25436;DHT22;13363;52.772;-3.890;2023-09-19T02:54:14;13.30;99.90
25436;DHT22;13363;52.772;-3.890;2023-09-19T02:56:41;13.30;99.90
25436;DHT22;13363;52.772;-3.890;2023-09-19T02:59:07;13.30;99.90
25436;DHT22;13363;52.772;-3.890;2023-09-19T03:01:36;13.40;99.90
25436;DHT22;13363;52.772;-3.890;2023-09-19T03:04:03;13.70;99.90
25436;DHT22;13363;52.772;-3.890;2023-09-19T03:06:29;13.80;99.90
25436;DHT22;13363;52.772;-3.890;2023-09-19T03:08:56;14.00;99.90
25436;DHT22;13363;52.772;-3.890;2023-09-19T03:11:22;14.00;99.90
25436;DHT22;13363;52.772;-3.890;2023-09-19T03:13:52;14.10;99.90
25436;DHT22;13363;52.772;-3.890;2023-09-19T03:16:18;14.30;99.90
25436;DHT22;13363;52.772;-3.890;2023-09-19T03:18:47;14.40;99.90
25436;DHT22;13363;52.772;-3.890;2023-09-19T03:21:15;14.40;99.90
25436;DHT22;13363;52.772;-3.890;2023-09-19T03:23:41;14.50;99.90
25436;DHT22;13363;52.772;-3.890;2023-09-19T03:26:11;14.60;99.90
25436;DHT22;13363;52.772;-3.890;2023-09-19T03:31:05;14.80;99.90
25436;DHT22;13363;52.772;-3.890;2023-09-19T03:33:32;14.80;99.90
25436;DHT22;13363;52.772;-3.890;2023-09-19T03:35:58;14.80;99.90
25436;DHT22;13363;52.772;-3.890;2023-09-19T03:38:25;14.80;99.90
25436;DHT22;13363;52.772;-3.890;2023-09-19T03:40:51;14.90;99.90
25436;DHT22;13363;52.772;-3.890;2023-09-19T03:43:17;14.80;99.90
25436;DHT22;13363;52.772;-3.890;2023-09-19T03:48:09;14.90;99.90
25436;DHT22;13363;52.772;-3.890;2023-09-19T03:50:35;14.90;99.90
25436;DHT22;13363;52.772;-3.890;2023-09-19T03:53:01;15.00;99.90
25436;DHT22;13363;52.772;-3.890;2023-09-19T03:55:28;15.00;99.90
25436;DHT22;13363;52.772;-3.890;2023-09-19T03:57:56;14.90;99.90
25436;DHT22;13363;52.772;-3.890;2023-09-19T04:00:22;15.00;99.90
25436;DHT22;13363;52.772;-3.890;2023-09-19T04:02:52;15.00;99.90
25436;DHT22;13363;52.772;-3.890;2023-09-19T04:05:18;15.00;99.90
25436;DHT22;13363;52.772;-3.890;2023-09-19T04:07:44;15.00;99.90
25436;DHT22;13363;52.772;-3.890;2023-09-19T04:10:10;15.00;99.90
25436;DHT22;13363;52.772;-3.890;2023-09-19T04:12:40;15.00;99.90
25436;DHT22;13363;52.772;-3.890;2023-09-19T04:15:06;15.00;99.90
25436;DHT22;13363;52.772;-3.890;2023-09-19T04:17:33;15.10;99.90
25436;DHT22;13363;52.772;-3.890;2023-09-19T04:19:59;15.10;99.90
25436;DHT22;13363;52.772;-3.890;2023-09-19T04:22:25;15.10;99.90
25436;DHT22;13363;52.772;-3.890;2023-09-19T04:27:17;15.10;99.90
25436;DHT22;13363;52.772;-3.890;2023-09-19T04:29:44;15.20;99.90
25436;DHT22;13363;52.772;-3.890;2023-09-19T04:32:10;15.20;99.90
25436;DHT22;13363;52.772;-3.890;2023-09-19T04:34:36;15.30;99.90
25436;DHT22;13363;52.772;-3.890;2023-09-19T04:37:03;15.40;99.90
25436;DHT22;13363;52.772;-3.890;2023-09-19T04:39:30;15.50;99.90
25436;DHT22;13363;52.772;-3.890;2023-09-19T04:41:55;15.40;99.90
25436;DHT22;13363;52.772;-3.890;2023-09-19T04:44:22;15.50;99.90
25436;DHT22;13363;52.772;-3.890;2023-09-19T04:46:48;15.50;99.90
25436;DHT22;13363;52.772;-3.890;2023-09-19T04:49:14;15.50;99.90
25436;DHT22;13363;52.772;-3.890;2023-09-19T04:51:40;15.50;99.90
25436;DHT22;13363;52.772;-3.890;2023-09-19T04:54:06;15.50;99.90
25436;DHT22;13363;52.772;-3.890;2023-09-19T04:56:32;15.60;99.90
25436;DHT22;13363;52.772;-3.890;2023-09-19T04:58:59;15.60;99.90
25436;DHT22;13363;52.772;-3.890;2023-09-19T05:01:25;15.70;99.90
25436;DHT22;13363;52.772;-3.890;2023-09-19T05:03:51;15.60;99.90
25436;DHT22;13363;52.772;-3.890;2023-09-19T05:06:18;15.60;99.90
25436;DHT22;13363;52.772;-3.890;2023-09-19T05:08:48;15.60;99.90
25436;DHT22;13363;52.772;-3.890;2023-09-19T05:11:21;15.60;99.90
25436;DHT22;13363;52.772;-3.890;2023-09-19T05:13:51;15.60;99.90
25436;DHT22;13363;52.772;-3.890;2023-09-19T05:16:18;15.70;99.90
25436;DHT22;13363;52.772;-3.890;2023-09-19T05:18:44;15.70;99.90
25436;DHT22;13363;52.772;-3.890;2023-09-19T05:21:10;15.80;99.90
25436;DHT22;13363;52.772;-3.890;2023-09-19T05:23:36;15.70;99.90
25436;DHT22;13363;52.772;-3.890;2023-09-19T05:26:02;15.70;99.90
25436;DHT22;13363;52.772;-3.890;2023-09-19T05:28:29;15.80;99.90
25436;DHT22;13363;52.772;-3.890;2023-09-19T05:30:55;15.80;99.90
25436;DHT22;13363;52.772;-3.890;2023-09-19T05:33:21;15.80;99.90
25436;DHT22;13363;52.772;-3.890;2023-09-19T05:35:50;15.80;99.90
25436;DHT22;13363;52.772;-3.890;2023-09-19T05:38:16;15.80;99.90
25436;DHT22;13363;52.772;-3.890;2023-09-19T05:40:45;15.80;99.90
25436;DHT22;13363;52.772;-3.890;2023-09-19T05:43:10;15.80;99.90
25436;DHT22;13363;52.772;-3.890;2023-09-19T05:45:36;15.80;99.90
25436;DHT22;13363;52.772;-3.890;2023-09-19T05:48:13;15.70;99.90
25436;DHT22;13363;52.772;-3.890;2023-09-19T05:50:41;15.70;99.90
25436;DHT22;13363;52.772;-3.890;2023-09-19T05:53:07;15.80;99.90
25436;DHT22;13363;52.772;-3.890;2023-09-19T05:55:33;15.80;99.90
25436;DHT22;13363;52.772;-3.890;2023-09-19T05:58:01;15.70;99.90
25436;DHT22;13363;52.772;-3.890;2023-09-19T06:00:29;15.80;99.90
25436;DHT22;13363;52.772;-3.890;2023-09-19T06:02:56;15.80;99.90
25436;DHT22;13363;52.772;-3.890;2023-09-19T06:05:26;15.80;99.90
25436;DHT22;13363;52.772;-3.890;2023-09-19T06:07:52;15.80;99.90
25436;DHT22;13363;52.772;-3.890;2023-09-19T06:10:19;15.90;99.90
25436;DHT22;13363;52.772;-3.890;2023-09-19T06:12:46;15.90;99.90
25436;DHT22;13363;52.772;-3.890;2023-09-19T06:15:14;15.90;99.90
25436;DHT22;13363;52.772;-3.890;2023-09-19T06:17:50;16.00;99.90
25436;DHT22;13363;52.772;-3.890;2023-09-19T06:20:16;15.90;99.90
25436;DHT22;13363;52.772;-3.890;2023-09-19T06:22:43;16.00;99.90
25436;DHT22;13363;52.772;-3.890;2023-09-19T06:25:10;16.10;99.90
25436;DHT22;13363;52.772;-3.890;2023-09-19T06:27:40;16.10;99.90
25436;DHT22;13363;52.772;-3.890;2023-09-19T06:30:10;16.10;99.90
25436;DHT22;13363;52.772;-3.890;2023-09-19T06:32:40;16.20;99.90
25436;DHT22;13363;52.772;-3.890;2023-09-19T06:35:14;16.20;99.90
25436;DHT22;13363;52.772;-3.890;2023-09-19T06:37:41;16.20;99.90
25436;DHT22;13363;52.772;-3.890;2023-09-19T06:40:08;16.20;99.90
25436;DHT22;13363;52.772;-3.890;2023-09-19T06:42:39;16.30;99.90
25436;DHT22;13363;52.772;-3.890;2023-09-19T06:45:06;16.30;99.90
25436;DHT22;13363;52.772;-3.890;2023-09-19T06:47:32;16.30;99.90
25436;DHT22;13363;52.772;-3.890;2023-09-19T06:49:58;16.30;99.90
25436;DHT22;13363;52.772;-3.890;2023-09-19T06:52:24;16.30;99.90
25436;DHT22;13363;52.772;-3.890;2023-09-19T06:54:53;16.40;99.90
25436;DHT22;13363;52.772;-3.890;2023-09-19T06:57:19;16.40;99.90
25436;DHT22;13363;52.772;-3.890;2023-09-19T06:59:45;16.40;99.90
25436;DHT22;13363;52.772;-3.890;2023-09-19T07:02:11;16.40;99.90
25436;DHT22;13363;52.772;-3.890;2023-09-19T07:04:39;16.50;99.90
25436;DHT22;13363;52.772;-3.890;2023-09-19T07:07:04;16.50;99.90
25436;DHT22;13363;52.772;-3.890;2023-09-19T07:09:33;16.50;99.90
25436;DHT22;13363;52.772;-3.890;2023-09-19T07:11:58;16.60;99.90
25436;DHT22;13363;52.772;-3.890;2023-09-19T07:14:24;16.60;99.90
25436;DHT22;13363;52.772;-3.890;2023-09-19T07:16:50;16.60;99.90
25436;DHT22;13363;52.772;-3.890;2023-09-19T07:19:16;16.60;99.90
25436;DHT22;13363;52.772;-3.890;2023-09-19T07:21:41;16.60;99.90
25436;DHT22;13363;52.772;-3.890;2023-09-19T07:24:08;16.60;99.90
25436;DHT22;13363;52.772;-3.890;2023-09-19T07:26:34;16.60;99.90
25436;DHT22;13363;52.772;-3.890;2023-09-19T07:29:00;16.70;99.90
25436;DHT22;13363;52.772;-3.890;2023-09-19T07:31:29;16.70;99.90
25436;DHT22;13363;52.772;-3.890;2023-09-19T07:33:56;16.80;99.90
25436;DHT22;13363;52.772;-3.890;2023-09-19T07:36:22;16.80;99.90
25436;DHT22;13363;52.772;-3.890;2023-09-19T07:38:50;16.90;99.90
25436;DHT22;13363;52.772;-3.890;2023-09-19T07:41:15;16.90;99.90
25436;DHT22;13363;52.772;-3.890;2023-09-19T07:43:41;16.90;99.90
25436;DHT22;13363;52.772;-3.890;2023-09-19T07:46:08;16.90;99.90
25436;DHT22;13363;52.772;-3.890;2023-09-19T07:48:37;17.00;99.90
25436;DHT22;13363;52.772;-3.890;2023-09-19T07:51:07;17.00;99.90
25436;DHT22;13363;52.772;-3.890;2023-09-19T07:53:35;17.00;99.90
25436;DHT22;13363;52.772;-3.890;2023-09-19T07:56:05;16.90;99.90
25436;DHT22;13363;52.772;-3.890;2023-09-19T07:58:31;17.00;99.90
25436;DHT22;13363;52.772;-3.890;2023-09-19T08:01:09;17.10;99.90
25436;DHT22;13363;52.772;-3.890;2023-09-19T08:03:36;17.00;99.90
25436;DHT22;13363;52.772;-3.890;2023-09-19T08:06:07;17.10;99.90
25436;DHT22;13363;52.772;-3.890;2023-09-19T08:08:34;17.00;99.90
25436;DHT22;13363;52.772;-3.890;2023-09-19T08:11:03;17.00;99.90
25436;DHT22;13363;52.772;-3.890;2023-09-19T08:13:36;17.10;99.90
25436;DHT22;13363;52.772;-3.890;2023-09-19T08:16:04;17.10;99.90
25436;DHT22;13363;52.772;-3.890;2023-09-19T08:18:30;17.10;99.90
25436;DHT22;13363;52.772;-3.890;2023-09-19T08:20:56;17.10;99.90
25436;DHT22;13363;52.772;-3.890;2023-09-19T08:23:24;17.10;99.90
25436;DHT22;13363;52.772;-3.890;2023-09-19T08:25:55;17.10;99.90
25436;DHT22;13363;52.772;-3.890;2023-09-19T08:30:50;17.10;99.90
25436;DHT22;13363;52.772;-3.890;2023-09-19T08:33:17;17.20;99.90
25436;DHT22;13363;52.772;-3.890;2023-09-19T08:35:42;17.10;99.90
25436;DHT22;13363;52.772;-3.890;2023-09-19T08:38:09;17.20;99.90
25436;DHT22;13363;52.772;-3.890;2023-09-19T08:40:39;17.20;99.90
25436;DHT22;13363;52.772;-3.890;2023-09-19T08:43:07;17.20;99.90
25436;DHT22;13363;52.772;-3.890;2023-09-19T08:45:34;17.20;99.90
25436;DHT22;13363;52.772;-3.890;2023-09-19T08:50:29;17.20;99.90
25436;DHT22;13363;52.772;-3.890;2023-09-19T08:52:56;17.30;99.90
25436;DHT22;13363;52.772;-3.890;2023-09-19T08:55:27;17.30;99.90
25436;DHT22;13363;52.772;-3.890;2023-09-19T08:58:00;17.30;99.90
25436;DHT22;13363;52.772;-3.890;2023-09-19T09:00:28;17.30;99.90
25436;DHT22;13363;52.772;-3.890;2023-09-19T09:02:56;17.30;99.90
25436;DHT22;13363;52.772;-3.890;2023-09-19T09:05:24;17.30;99.90
25436;DHT22;13363;52.772;-3.890;2023-09-19T09:07:52;17.40;99.90
25436;DHT22;13363;52.772;-3.890;2023-09-19T09:10:20;17.40;99.90
25436;DHT22;13363;52.772;-3.890;2023-09-19T09:12:51;17.30;99.90
25436;DHT22;13363;52.772;-3.890;2023-09-19T09:15:22;17.30;99.90
25436;DHT22;13363;52.772;-3.890;2023-09-19T09:17:52;17.30;99.90
25436;DHT22;13363;52.772;-3.890;2023-09-19T09:20:19;17.40;99.90
25436;DHT22;13363;52.772;-3.890;2023-09-19T09:22:52;17.30;99.90
25436;DHT22;13363;52.772;-3.890;2023-09-19T09:25:19;17.30;99.90
25436;DHT22;13363;52.772;-3.890;2023-09-19T09:27:59;17.40;99.90
25436;DHT22;13363;52.772;-3.890;2023-09-19T09:30:34;17.40;99.90
25436;DHT22;13363;52.772;-3.890;2023-09-19T09:33:11;17.30;99.90
25436;DHT22;13363;52.772;-3.890;2023-09-19T09:35:59;17.40;99.90
25436;DHT22;13363;52.772;-3.890;2023-09-19T09:38:27;17.30;99.90
25436;DHT22;13363;52.772;-3.890;2023-09-19T09:40:57;17.40;99.90
25436;DHT22;13363;52.772;-3.890;2023-09-19T09:43:37;17.40;99.90
25436;DHT22;13363;52.772;-3.890;2023-09-19T09:46:17;17.50;99.90
25436;DHT22;13363;52.772;-3.890;2023-09-19T09:48:59;17.50;99.90
25436;DHT22;13363;52.772;-3.890;2023-09-19T09:55:02;17.40;99.90
25436;DHT22;13363;52.772;-3.890;2023-09-19T09:57:34;17.50;99.90
25436;DHT22;13363;52.772;-3.890;2023-09-19T10:00:11;17.50;99.90
25436;DHT22;13363;52.772;-3.890;2023-09-19T10:02:39;17.50;99.90
25436;DHT22;13363;52.772;-3.890;2023-09-19T10:05:16;17.50;99.90
25436;DHT22;13363;52.772;-3.890;2023-09-19T10:08:12;17.50;99.90
25436;DHT22;13363;52.772;-3.890;2023-09-19T10:10:40;17.50;99.90
25436;DHT22;13363;52.772;-3.890;2023-09-19T10:13:10;17.50;99.90
25436;DHT22;13363;52.772;-3.890;2023-09-19T10:15:47;17.40;99.90
25436;DHT22;13363;52.772;-3.890;2023-09-19T10:18:26;17.40;99.90
25436;DHT22;13363;52.772;-3.890;2023-09-19T10:20:53;17.50;99.90
25436;DHT22;13363;52.772;-3.890;2023-09-19T10:23:21;17.40;99.90
25436;DHT22;13363;52.772;-3.890;2023-09-19T10:25:52;17.40;99.90
25436;DHT22;13363;52.772;-3.890;2023-09-19T10:28:20;17.40;99.90
25436;DHT22;13363;52.772;-3.890;2023-09-19T10:30:52;17.50;99.90
25436;DHT22;13363;52.772;-3.890;2023-09-19T10:33:23;17.50;99.90
25436;DHT22;13363;52.772;-3.890;2023-09-19T10:35:51;17.50;99.90
25436;DHT22;13363;52.772;-3.890;2023-09-19T10:38:19;17.50;99.90
25436;DHT22;13363;52.772;-3.890;2023-09-19T10:40:50;17.50;99.90
25436;DHT22;13363;52.772;-3.890;2023-09-19T10:43:18;17.40;99.90
25436;DHT22;13363;52.772;-3.890;2023-09-19T10:45:45;17.40;99.90
25436;DHT22;13363;52.772;-3.890;2023-09-19T10:48:13;17.50;99.90
25436;DHT22;13363;52.772;-3.890;2023-09-19T10:53:20;17.50;99.90
25436;DHT22;13363;52.772;-3.890;2023-09-19T10:55:58;17.50;99.90
25436;DHT22;13363;52.772;-3.890;2023-09-19T10:58:30;17.50;99.90
25436;DHT22;13363;52.772;-3.890;2023-09-19T11:01:00;17.50;99.90
25436;DHT22;13363;52.772;-3.890;2023-09-19T11:03:38;17.50;99.90
25436;DHT22;13363;52.772;-3.890;2023-09-19T11:06:14;17.50;99.90
25436;DHT22;13363;52.772;-3.890;2023-09-19T11:09:02;17.50;99.90
25436;DHT22;13363;52.772;-3.890;2023-09-19T11:11:42;17.50;99.90
25436;DHT22;13363;52.772;-3.890;2023-09-19T11:14:59;17.50;99.90
25436;DHT22;13363;52.772;-3.890;2023-09-19T11:30:44;17.60;99.90
25436;DHT22;13363;52.772;-3.890;2023-09-19T11:33:22;17.60;99.90
25436;DHT22;13363;52.772;-3.890;2023-09-19T11:36:11;17.50;99.90
25436;DHT22;13363;52.772;-3.890;2023-09-19T11:46:55;17.50;99.90
25436;DHT22;13363;52.772;-3.890;2023-09-19T11:49:29;17.50;99.90
25436;DHT22;13363;52.772;-3.890;2023-09-19T11:52:05;17.50;99.90
25436;DHT22;13363;52.772;-3.890;2023-09-19T11:54:35;17.50;99.90
25436;DHT22;13363;52.772;-3.890;2023-09-19T11:57:06;17.50;99.90
25436;DHT22;13363;52.772;-3.890;2023-09-19T11:59:39;17.50;99.90
25436;DHT22;13363;52.772;-3.890;2023-09-19T12:02:06;17.40;99.90
25436;DHT22;13363;52.772;-3.890;2023-09-19T12:04:41;17.40;99.90
25436;DHT22;13363;52.772;-3.890;2023-09-19T12:07:10;17.50;99.90
25436;DHT22;13363;52.772;-3.890;2023-09-19T12:09:44;17.50;99.90
25436;DHT22;13363;52.772;-3.890;2023-09-19T12:12:26;17.40;99.90
25436;DHT22;13363;52.772;-3.890;2023-09-19T12:14:59;17.40;99.90
25436;DHT22;13363;52.772;-3.890;2023-09-19T12:17:41;17.40;99.90
25436;DHT22;13363;52.772;-3.890;2023-09-19T12:20:08;17.40;99.90
25436;DHT22;13363;52.772;-3.890;2023-09-19T12:22:46;17.40;99.90
25436;DHT22;13363;52.772;-3.890;2023-09-19T12:25:13;17.40;99.90
25436;DHT22;13363;52.772;-3.890;2023-09-19T12:27:46;17.50;99.90
25436;DHT22;13363;52.772;-3.890;2023-09-19T12:30:13;17.50;99.90
25436;DHT22;13363;52.772;-3.890;2023-09-19T12:35:10;17.50;99.90
25436;DHT22;13363;52.772;-3.890;2023-09-19T12:37:54;17.50;99.90
25436;DHT22;13363;52.772;-3.890;2023-09-19T12:40:21;17.50;99.90
25436;DHT22;13363;52.772;-3.890;2023-09-19T12:42:49;17.50;99.90
25436;DHT22;13363;52.772;-3.890;2023-09-19T12:45:15;17.60;99.90
25436;DHT22;13363;52.772;-3.890;2023-09-19T12:51:13;17.60;99.90
25436;DHT22;13363;52.772;-3.890;2023-09-19T12:53:43;17.60;99.90
25436;DHT22;13363;52.772;-3.890;2023-09-19T12:56:17;17.70;99.90
25436;DHT22;13363;52.772;-3.890;2023-09-19T12:58:50;17.60;99.90
25436;DHT22;13363;52.772;-3.890;2023-09-19T13:01:16;17.70;99.90
25436;DHT22;13363;52.772;-3.890;2023-09-19T13:06:09;17.70;99.90
25436;DHT22;13363;52.772;-3.890;2023-09-19T13:08:37;17.70;99.90
25436;DHT22;13363;52.772;-3.890;2023-09-19T13:11:16;17.70;99.90
25436;DHT22;13363;52.772;-3.890;2023-09-19T13:14:13;17.70;99.90
25436;DHT22;13363;52.772;-3.890;2023-09-19T13:19:47;17.70;99.90
25436;DHT22;13363;52.772;-3.890;2023-09-19T13:22:43;17.80;99.90
25436;DHT22;13363;52.772;-3.890;2023-09-19T13:25:20;17.80;99.90
25436;DHT22;13363;52.772;-3.890;2023-09-19T13:27:53;17.80;99.90
25436;DHT22;13363;52.772;-3.890;2023-09-19T13:30:25;17.80;99.90
25436;DHT22;13363;52.772;-3.890;2023-09-19T13:32:52;17.80;99.90
25436;DHT22;13363;52.772;-3.890;2023-09-19T13:35:19;17.80;99.90
25436;DHT22;13363;52.772;-3.890;2023-09-19T13:37:47;17.80;99.90
25436;DHT22;13363;52.772;-3.890;2023-09-19T13:40:14;17.70;99.90
25436;DHT22;13363;52.772;-3.890;2023-09-19T13:42:41;17.80;99.90
25436;DHT22;13363;52.772;-3.890;2023-09-19T13:45:08;17.80;99.90
25436;DHT22;13363;52.772;-3.890;2023-09-19T13:47:38;17.80;99.90
25436;DHT22;13363;52.772;-3.890;2023-09-19T13:50:04;17.80;99.90
25436;DHT22;13363;52.772;-3.890;2023-09-19T13:52:31;17.80;99.90
25436;DHT22;13363;52.772;-3.890;2023-09-19T13:54:57;17.80;99.90
25436;DHT22;13363;52.772;-3.890;2023-09-19T13:57:24;17.80;99.90
25436;DHT22;13363;52.772;-3.890;2023-09-19T13:59:50;17.80;99.90
25436;DHT22;13363;52.772;-3.890;2023-09-19T14:02:17;17.80;99.90
25436;DHT22;13363;52.772;-3.890;2023-09-19T14:04:48;17.80;99.90
25436;DHT22;13363;52.772;-3.890;2023-09-19T14:07:15;17.80;99.90
25436;DHT22;13363;52.772;-3.890;2023-09-19T14:09:43;17.90;99.90
25436;DHT22;13363;52.772;-3.890;2023-09-19T14:12:09;17.90;99.90
25436;DHT22;13363;52.772;-3.890;2023-09-19T14:14:35;17.90;99.90
25436;DHT22;13363;52.772;-3.890;2023-09-19T14:17:00;17.90;99.90
25436;DHT22;13363;52.772;-3.890;2023-09-19T14:19:27;17.90;99.90
25436;DHT22;13363;52.772;-3.890;2023-09-19T14:21:53;18.00;99.90
25436;DHT22;13363;52.772;-3.890;2023-09-19T14:24:22;18.00;99.90
25436;DHT22;13363;52.772;-3.890;2023-09-19T14:26:49;18.00;99.90
25436;DHT22;13363;52.772;-3.890;2023-09-19T14:29:15;18.00;99.90
25436;DHT22;13363;52.772;-3.890;2023-09-19T14:31:42;18.00;99.90
25436;DHT22;13363;52.772;-3.890;2023-09-19T14:34:08;18.00;99.90
25436;DHT22;13363;52.772;-3.890;2023-09-19T14:36:37;18.00;99.90
25436;DHT22;13363;52.772;-3.890;2023-09-19T14:39:09;18.00;99.90
25436;DHT22;13363;52.772;-3.890;2023-09-19T14:41:36;18.00;99.90
25436;DHT22;13363;52.772;-3.890;2023-09-19T14:44:03;18.00;99.90
25436;DHT22;13363;52.772;-3.890;2023-09-19T14:46:30;18.10;99.90
25436;DHT22;13363;52.772;-3.890;2023-09-19T14:48:56;18.00;99.90
25436;DHT22;13363;52.772;-3.890;2023-09-19T14:51:25;18.00;99.90
25436;DHT22;13363;52.772;-3.890;2023-09-19T14:53:51;18.00;99.90
25436;DHT22;13363;52.772;-3.890;2023-09-19T14:56:18;18.10;99.90
25436;DHT22;13363;52.772;-3.890;2023-09-19T14:58:45;18.10;99.90
25436;DHT22;13363;52.772;-3.890;2023-09-19T15:01:13;18.10;99.90
25436;DHT22;13363;52.772;-3.890;2023-09-19T15:03:41;18.10;99.90
25436;DHT22;13363;52.772;-3.890;2023-09-19T15:06:11;18.10;99.90
25436;DHT22;13363;52.772;-3.890;2023-09-19T15:08:46;18.10;99.90
25436;DHT22;13363;52.772;-3.890;2023-09-19T15:11:19;18.10;99.90
25436;DHT22;13363;52.772;-3.890;2023-09-19T15:13:46;18.10;99.90
25436;DHT22;13363;52.772;-3.890;2023-09-19T15:19:17;18.20;99.90
25436;DHT22;13363;52.772;-3.890;2023-09-19T15:21:44;18.20;99.90
25436;DHT22;13363;52.772;-3.890;2023-09-19T15:24:10;18.20;99.90
25436;DHT22;13363;52.772;-3.890;2023-09-19T15:26:39;18.20;99.90
25436;DHT22;13363;52.772;-3.890;2023-09-19T15:29:07;18.20;99.90
25436;DHT22;13363;52.772;-3.890;2023-09-19T15:31:35;18.20;99.90
25436;DHT22;13363;52.772;-3.890;2023-09-19T15:34:05;18.20;99.90
25436;DHT22;13363;52.772;-3.890;2023-09-19T15:36:34;18.20;99.90
25436;DHT22;13363;52.772;-3.890;2023-09-19T15:39:03;18.20;99.90
25436;DHT22;13363;52.772;-3.890;2023-09-19T15:41:35;18.20;99.90
25436;DHT22;13363;52.772;-3.890;2023-09-19T15:44:03;18.20;99.90
25436;DHT22;13363;52.772;-3.890;2023-09-19T15:46:31;18.20;99.90
25436;DHT22;13363;52.772;-3.890;2023-09-19T15:48:59;18.20;99.90
25436;DHT22;13363;52.772;-3.890;2023-09-19T15:51:26;18.20;99.90
25436;DHT22;13363;52.772;-3.890;2023-09-19T15:53:53;18.30;99.90
25436;DHT22;13363;52.772;-3.890;2023-09-19T15:56:20;18.20;99.90
25436;DHT22;13363;52.772;-3.890;2023-09-19T15:58:51;18.20;99.90
25436;DHT22;13363;52.772;-3.890;2023-09-19T16:01:18;18.10;99.90
25436;DHT22;13363;52.772;-3.890;2023-09-19T16:03:48;18.00;99.90
25436;DHT22;13363;52.772;-3.890;2023-09-19T16:06:16;17.90;99.90
25436;DHT22;13363;52.772;-3.890;2023-09-19T16:08:47;17.90;99.90
25436;DHT22;13363;52.772;-3.890;2023-09-19T16:11:13;17.80;99.90
25436;DHT22;13363;52.772;-3.890;2023-09-19T16:13:41;17.70;99.90
25436;DHT22;13363;52.772;-3.890;2023-09-19T16:16:08;17.70;99.90
25436;DHT22;13363;52.772;-3.890;2023-09-19T16:18:47;17.70;99.90
25436;DHT22;13363;52.772;-3.890;2023-09-19T16:21:23;17.60;99.90
25436;DHT22;13363;52.772;-3.890;2023-09-19T16:23:50;17.70;99.90
25436;DHT22;13363;52.772;-3.890;2023-09-19T16:26:17;17.70;99.90
25436;DHT22;13363;52.772;-3.890;2023-09-19T16:28:49;17.80;99.90
25436;DHT22;13363;52.772;-3.890;2023-09-19T16:31:16;17.80;99.90
25436;DHT22;13363;52.772;-3.890;2023-09-19T16:33:43;17.90;99.90
25436;DHT22;13363;52.772;-3.890;2023-09-19T16:36:14;17.90;99.90
25436;DHT22;13363;52.772;-3.890;2023-09-19T16:38:42;17.90;99.90
25436;DHT22;13363;52.772;-3.890;2023-09-19T16:41:09;18.00;99.90
25436;DHT22;13363;52.772;-3.890;2023-09-19T16:43:35;18.00;99.90